createdAt,value
2022-11-10T00:00:01.353Z,9.55
2022-11-10T05:01:01.301Z,10.20
2022-11-10T05:03:49.285Z,10.22
2022-11-10T05:06:35.956Z,10.23
2022-11-10T05:09:21.853Z,10.23
2022-11-10T05:12:08.152Z,10.22
2022-11-10T05:14:54.793Z,10.18
2022-11-10T05:17:41.479Z,10.18
2022-11-10T05:20:27.815Z,10.16
2022-11-10T05:23:33.532Z,10.15
2022-11-10T05:26:20.200Z,10.11
2022-11-10T05:29:06.612Z,10.07
2022-11-10T05:31:52.771Z,10.06
2022-11-10T05:34:39.420Z,10.05
2022-11-10T05:37:25.785Z,10.03
2022-11-10T05:40:13.302Z,10.02
2022-11-10T05:43:00.189Z,9.99
2022-11-10T05:45:45.943Z,9.97
2022-11-10T05:48:32.455Z,9.94
2022-11-10T05:51:19.279Z,9.92
2022-11-10T05:54:05.704Z,9.91
2022-11-10T05:56:51.968Z,9.91
2022-11-10T05:59:37.760Z,9.92
2022-11-10T06:02:23.331Z,9.91
2022-11-10T06:05:10.948Z,9.90
2022-11-10T06:07:58.334Z,9.89
2022-11-10T06:10:44.934Z,9.88
2022-11-10T06:13:33.614Z,9.85
2022-11-10T06:16:20.011Z,9.81
2022-11-10T06:19:06.457Z,9.81
2022-11-10T06:22:00.473Z,9.83
2022-11-10T06:24:48.769Z,9.86
2022-11-10T06:27:35.287Z,9.86
2022-11-10T06:30:21.891Z,9.88
2022-11-10T06:33:09.449Z,9.90
2022-11-10T06:35:55.820Z,9.91
2022-11-10T06:38:42.277Z,9.95
2022-11-10T06:41:32.151Z,9.95
2022-11-10T06:44:18.366Z,9.99
2022-11-10T06:47:05.080Z,10.01
2022-11-10T06:49:51.158Z,10.00
2022-11-10T06:52:37.842Z,10.03
2022-11-10T06:55:24.348Z,10.07
2022-11-10T06:58:11.018Z,10.10
2022-11-10T07:01:01.223Z,10.10
2022-11-10T07:04:13.122Z,10.15
2022-11-10T07:06:53.584Z,10.18
2022-11-10T07:09:39.642Z,10.19
2022-11-10T07:12:25.503Z,10.23
2022-11-10T07:15:12.096Z,10.27
2022-11-10T07:17:58.611Z,10.32
2022-11-10T07:20:46.362Z,10.36
2022-11-10T07:23:33.900Z,10.39
2022-11-10T07:26:19.417Z,10.44
2022-11-10T07:29:05.544Z,10.47
2022-11-10T07:31:51.312Z,10.50
2022-11-10T07:34:37.325Z,10.55
2022-11-10T07:37:23.374Z,10.63
2022-11-10T07:40:10.371Z,10.70
2022-11-10T07:42:56.077Z,10.76
2022-11-10T07:45:41.981Z,10.82
2022-11-10T07:48:28.676Z,10.89
2022-11-10T07:51:14.673Z,10.95
2022-11-10T07:54:00.978Z,10.99
2022-11-10T07:56:46.724Z,11.04
2022-11-10T07:59:32.731Z,11.11
2022-11-10T08:02:18.605Z,11.17
2022-11-10T08:05:04.972Z,11.19
2022-11-10T08:07:53.614Z,11.22
2022-11-10T08:10:41.466Z,11.26
2022-11-10T08:13:26.884Z,11.28
2022-11-10T08:16:12.940Z,11.29
2022-11-10T08:18:59.244Z,11.28
2022-11-10T08:21:45.077Z,11.27
2022-11-10T08:24:31.581Z,11.28
2022-11-10T08:27:21.185Z,11.30
2022-11-10T08:30:08.672Z,11.34
2022-11-10T08:33:00.450Z,11.39
2022-11-10T08:35:49.003Z,11.48
2022-11-10T08:38:35.031Z,11.58
2022-11-10T08:41:21.333Z,11.63
2022-11-10T08:44:10.855Z,11.66
2022-11-10T08:46:58.119Z,11.63
2022-11-10T08:49:47.017Z,11.61
2022-11-10T08:52:33.202Z,11.58
2022-11-10T08:55:20.740Z,11.54
2022-11-10T08:58:09.258Z,11.53
2022-11-10T09:00:55.727Z,11.52
2022-11-10T09:03:42.402Z,11.52
2022-11-10T09:06:29.021Z,11.53
2022-11-10T09:09:15.573Z,11.54
2022-11-10T09:12:04.938Z,11.58
2022-11-10T09:14:51.825Z,11.63
2022-11-10T09:17:40.401Z,11.71
2022-11-10T09:20:29.224Z,11.81
2022-11-10T09:23:20.001Z,11.91
2022-11-10T09:26:07.925Z,12.03
2022-11-10T09:28:54.361Z,12.10
2022-11-10T09:31:40.297Z,12.14
2022-11-10T09:34:26.668Z,12.17
2022-11-10T09:37:13.159Z,12.19
2022-11-10T09:40:01.444Z,12.23
2022-11-10T09:42:48.339Z,12.21
2022-11-10T09:45:40.328Z,12.22
2022-11-10T09:48:43.657Z,12.23
2022-11-10T09:51:36.840Z,12.27
2022-11-10T09:54:29.092Z,12.24
2022-11-10T09:57:20.716Z,12.22
2022-11-10T10:00:37.751Z,12.23
2022-11-10T10:03:30.567Z,12.20
2022-11-10T10:06:22.533Z,12.19
2022-11-10T10:09:45.413Z,12.19
2022-11-10T10:12:58.174Z,12.15
2022-11-10T10:15:55.847Z,12.12
2022-11-10T10:19:06.782Z,12.10
2022-11-10T10:22:17.001Z,12.07
2022-11-10T10:25:13.476Z,12.04
2022-11-10T10:28:12.250Z,12.06
2022-11-10T10:31:17.819Z,12.11
2022-11-10T10:34:05.132Z,12.19
2022-11-10T10:36:50.991Z,12.29
2022-11-10T10:39:44.534Z,12.34
2022-11-10T10:42:32.169Z,12.42
2022-11-10T10:45:23.364Z,12.44
2022-11-10T10:48:38.509Z,12.45
2022-11-10T10:51:31.272Z,12.45
2022-11-10T10:54:31.532Z,12.46
2022-11-10T10:57:33.593Z,12.46
2022-11-10T11:00:24.298Z,12.49
2022-11-10T11:03:30.426Z,12.55
2022-11-10T11:06:19.510Z,12.60
2022-11-10T11:09:09.592Z,12.64
2022-11-10T11:12:08.204Z,12.66
2022-11-10T11:15:14.305Z,12.65
2022-11-10T11:18:04.384Z,12.66
2022-11-10T11:20:57.062Z,12.63
2022-11-10T11:24:07.818Z,12.58
2022-11-10T11:27:03.148Z,12.60
2022-11-10T11:30:18.078Z,12.61
2022-11-10T11:33:28.929Z,12.60
2022-11-10T11:36:33.487Z,12.55
2022-11-10T11:39:36.246Z,12.48
2022-11-10T11:42:26.123Z,12.43
2022-11-10T11:45:28.478Z,12.38
2022-11-10T11:48:21.157Z,12.40
2022-11-10T11:51:12.740Z,12.37
2022-11-10T11:54:17.798Z,12.35
2022-11-10T11:57:54.313Z,12.38
2022-11-10T12:00:56.912Z,12.41
2022-11-10T12:04:04.319Z,12.45
2022-11-10T12:07:14.089Z,12.46
2022-11-10T12:10:27.973Z,12.47
2022-11-10T12:13:31.070Z,12.52
2022-11-10T12:16:31.133Z,12.58
2022-11-10T12:19:30.170Z,12.67
2022-11-10T12:22:33.149Z,12.71
2022-11-10T12:25:24.370Z,12.72
2022-11-10T12:28:36.025Z,12.73
2022-11-10T12:31:25.331Z,12.72
2022-11-10T12:34:25.350Z,12.68
2022-11-10T12:37:41.947Z,12.65
2022-11-10T12:40:41.796Z,12.61
2022-11-10T12:44:18.898Z,12.57
2022-11-10T12:47:12.416Z,12.47
2022-11-10T12:50:11.181Z,12.44
2022-11-10T12:53:05.391Z,12.41
2022-11-10T12:55:58.308Z,12.43
2022-11-10T12:58:44.821Z,12.45
2022-11-10T13:01:31.123Z,12.46
2022-11-10T13:04:19.387Z,12.48
2022-11-10T13:07:12.023Z,12.45
2022-11-10T13:10:26.706Z,12.43
2022-11-10T13:13:17.351Z,12.44
2022-11-10T13:16:03.214Z,12.46
2022-11-10T13:18:54.365Z,12.49
2022-11-10T13:21:52.485Z,12.54
2022-11-10T13:24:43.465Z,12.58
2022-11-10T13:27:38.116Z,12.61
2022-11-10T13:30:43.957Z,12.63
2022-11-10T13:33:36.664Z,12.59
2022-11-10T13:36:46.958Z,12.53
2022-11-10T13:39:33.878Z,12.44
2022-11-10T13:42:24.249Z,12.35
2022-11-10T13:45:43.760Z,12.25
2022-11-10T13:48:53.875Z,12.13
2022-11-10T13:51:48.848Z,12.01
2022-11-10T13:54:50.531Z,11.91
2022-11-10T13:57:38.818Z,11.84
2022-11-10T14:00:31.990Z,11.78
2022-11-10T14:03:47.858Z,11.73
2022-11-10T14:06:37.373Z,11.67
2022-11-10T14:09:34.004Z,11.63
2022-11-10T14:12:35.893Z,11.60
2022-11-10T14:15:28.529Z,11.54
2022-11-10T14:18:38.139Z,11.50
2022-11-10T14:21:43.213Z,11.43
2022-11-10T14:24:36.481Z,11.36
2022-11-10T14:27:31.409Z,11.28
2022-11-10T14:30:25.064Z,11.16
2022-11-10T14:33:13.530Z,11.10
2022-11-10T14:36:03.784Z,11.03
2022-11-10T14:38:52.021Z,10.95
2022-11-10T14:41:46.526Z,10.90
2022-11-10T14:44:49.781Z,10.84
2022-11-10T14:47:38.273Z,10.81
2022-11-10T14:50:28.157Z,10.77
2022-11-10T14:53:31.447Z,10.72
2022-11-10T14:56:22.501Z,10.65
2022-11-10T14:59:14.512Z,10.56
2022-11-10T15:02:01.889Z,10.51
2022-11-10T15:04:51.753Z,10.47
2022-11-10T15:07:40.269Z,10.44
2022-11-10T15:10:42.779Z,10.40
2022-11-10T15:13:32.394Z,10.37
2022-11-10T15:16:28.210Z,10.33
2022-11-10T15:19:36.913Z,10.29
2022-11-10T15:22:37.439Z,10.24
2022-11-10T15:25:26.554Z,10.18
2022-11-10T15:28:28.461Z,10.14
2022-11-10T15:31:26.263Z,10.08
2022-11-10T15:34:42.220Z,10.03
2022-11-10T15:37:31.595Z,10.00
2022-11-10T15:40:52.020Z,9.97
2022-11-10T15:43:38.640Z,9.94
2022-11-10T15:46:27.069Z,9.91
2022-11-10T15:49:30.606Z,9.85
2022-11-10T15:52:19.650Z,9.79
2022-11-10T15:55:08.468Z,9.75
2022-11-10T15:57:58.442Z,9.70
2022-11-10T16:00:46.144Z,9.66
2022-11-10T16:03:35.314Z,9.64
2022-11-10T16:06:21.905Z,9.62
2022-11-10T16:09:11.498Z,9.59
2022-11-10T16:11:57.614Z,9.56
2022-11-10T16:14:55.574Z,9.51
2022-11-10T16:17:41.870Z,9.48
2022-11-10T16:20:27.733Z,9.47
2022-11-10T16:23:14.591Z,9.46
2022-11-10T16:26:00.550Z,9.45
2022-11-10T16:28:48.063Z,9.44
2022-11-10T16:31:35.351Z,9.42
2022-11-10T16:34:21.911Z,9.37
2022-11-10T16:37:12.565Z,9.33
2022-11-10T16:39:58.961Z,9.27
2022-11-10T16:42:45.419Z,9.24
2022-11-10T16:45:43.363Z,9.22
2022-11-10T16:48:33.729Z,9.22
2022-11-10T16:51:30.867Z,9.20
2022-11-10T16:54:17.347Z,9.20
2022-11-10T16:57:17.650Z,9.20
2022-11-10T17:00:04.453Z,9.16
2022-11-10T17:03:02.888Z,9.13
2022-11-10T17:05:49.059Z,9.09
2022-11-10T17:08:36.894Z,9.06
2022-11-10T17:11:24.685Z,9.04
2022-11-10T17:14:15.029Z,9.01
2022-11-10T17:17:01.226Z,9.00
2022-11-10T17:19:49.678Z,8.98
2022-11-10T17:22:36.803Z,8.92
2022-11-10T17:25:27.324Z,8.88
2022-11-10T17:28:17.069Z,8.85
2022-11-10T17:31:03.881Z,8.82
2022-11-10T17:33:49.974Z,8.82
2022-11-10T17:36:36.587Z,8.81
2022-11-10T17:39:23.502Z,8.81
2022-11-10T17:42:16.027Z,8.81
2022-11-10T17:45:01.982Z,8.78
2022-11-10T17:47:49.047Z,8.74
2022-11-10T17:50:37.201Z,8.72
2022-11-10T17:53:35.484Z,8.72
2022-11-10T17:56:21.602Z,8.71
2022-11-10T17:59:07.879Z,8.70
2022-11-10T18:01:53.745Z,8.70
2022-11-10T18:04:39.517Z,8.69
2022-11-10T18:07:26.684Z,8.67
2022-11-10T18:10:15.909Z,8.63
2022-11-10T18:13:02.161Z,8.59
2022-11-10T18:15:48.525Z,8.56
2022-11-10T18:18:36.141Z,8.50
2022-11-10T18:21:22.321Z,8.48
2022-11-10T18:24:08.116Z,8.46
2022-11-10T18:26:54.354Z,8.43
2022-11-10T18:29:44.224Z,8.40
2022-11-10T18:32:31.631Z,8.36
2022-11-10T18:35:18.303Z,8.29
2022-11-10T18:38:04.301Z,8.22
2022-11-10T18:40:50.091Z,8.16
2022-11-10T18:43:36.357Z,8.11
2022-11-10T18:46:22.163Z,8.07
2022-11-10T18:49:08.105Z,8.03
2022-11-10T18:51:54.218Z,8.00
2022-11-10T18:54:40.339Z,7.97
2022-11-10T18:57:26.668Z,7.93
2022-11-10T19:00:13.098Z,7.89
2022-11-10T19:02:59.496Z,7.87
2022-11-10T19:05:55.657Z,7.84
2022-11-10T19:08:45.360Z,7.84
2022-11-10T19:11:33.033Z,7.83
2022-11-10T19:14:18.841Z,7.81
2022-11-10T19:17:05.509Z,7.80
2022-11-10T19:19:56.178Z,7.76
2022-11-10T19:22:43.271Z,7.71
2022-11-10T19:25:29.807Z,7.68
2022-11-10T19:28:16.275Z,7.65
2022-11-10T19:31:23.642Z,7.64
2022-11-10T19:34:09.390Z,7.63
2022-11-10T19:36:54.860Z,7.64
2022-11-10T19:39:40.997Z,7.63
2022-11-10T19:42:27.714Z,7.63
2022-11-10T19:45:15.862Z,7.66
2022-11-10T19:48:04.043Z,7.66
2022-11-10T19:50:57.280Z,7.64
2022-11-10T19:53:45.883Z,7.62
2022-11-10T19:56:34.402Z,7.60
2022-11-10T19:59:21.467Z,7.58
2022-11-10T20:02:11.456Z,7.55
2022-11-10T20:05:16.689Z,7.51
2022-11-10T20:08:30.445Z,7.47
2022-11-10T20:11:26.232Z,7.43
2022-11-10T20:14:12.283Z,7.40
2022-11-10T20:16:58.958Z,7.40
2022-11-10T20:19:44.719Z,7.40
2022-11-10T20:22:30.821Z,7.41
2022-11-10T20:25:16.823Z,7.43
2022-11-10T20:28:06.195Z,7.44
2022-11-10T20:30:55.418Z,7.44
2022-11-10T20:33:41.397Z,7.45
2022-11-10T20:36:29.157Z,7.45
2022-11-10T20:39:15.000Z,7.47
2022-11-10T20:42:00.621Z,7.48
2022-11-10T20:44:46.648Z,7.49
2022-11-10T20:47:33.094Z,7.50
2022-11-10T20:50:23.946Z,7.47
2022-11-10T20:53:10.565Z,7.46
2022-11-10T20:56:02.321Z,7.45
2022-11-10T20:58:49.258Z,7.44
2022-11-10T21:01:35.674Z,7.44
2022-11-10T21:04:21.338Z,7.45
2022-11-10T21:07:07.327Z,7.44
2022-11-10T21:09:53.924Z,7.44
2022-11-10T21:12:52.825Z,7.43
2022-11-10T21:15:41.203Z,7.41
2022-11-10T21:18:30.613Z,7.38
2022-11-10T21:21:23.614Z,7.36
2022-11-10T21:24:11.598Z,7.36
2022-11-10T21:26:59.079Z,7.35
2022-11-10T21:29:44.918Z,7.34
2022-11-10T21:32:31.507Z,7.34
2022-11-10T21:35:18.300Z,7.30
2022-11-10T21:38:05.568Z,7.26
2022-11-10T21:40:51.340Z,7.24
2022-11-10T21:43:39.175Z,7.21
2022-11-10T21:46:25.000Z,7.20
2022-11-10T21:49:10.900Z,7.22
2022-11-10T21:51:57.115Z,7.23
2022-11-10T21:54:43.865Z,7.23
2022-11-10T21:57:29.544Z,7.20
2022-11-10T22:00:17.426Z,7.18
2022-11-10T22:03:06.116Z,7.17
2022-11-10T22:05:51.969Z,7.17
2022-11-10T22:08:40.300Z,7.17
2022-11-10T22:11:45.619Z,7.16
2022-11-10T22:14:50.383Z,7.18
2022-11-10T22:17:55.672Z,7.16
2022-11-10T22:20:41.451Z,7.14
2022-11-10T22:23:46.707Z,7.13
2022-11-10T22:26:32.348Z,7.13
2022-11-10T22:29:19.205Z,7.13
2022-11-10T22:32:05.099Z,7.13
2022-11-10T22:34:50.621Z,7.15
2022-11-10T22:37:36.667Z,7.17
2022-11-10T22:40:41.517Z,7.19
2022-11-10T22:43:46.551Z,7.18
2022-11-10T22:46:37.527Z,7.16
2022-11-10T22:49:25.194Z,7.16
2022-11-10T22:52:11.729Z,7.16
2022-11-10T22:54:58.772Z,7.15
2022-11-10T22:57:44.986Z,7.15
2022-11-10T23:00:31.099Z,7.15
2022-11-10T23:03:18.041Z,7.15
2022-11-10T23:06:05.066Z,7.14
2022-11-10T23:08:53.189Z,7.11
2022-11-10T23:11:39.320Z,7.11
2022-11-10T23:14:24.869Z,7.10
2022-11-10T23:17:10.730Z,7.11
2022-11-10T23:19:56.472Z,7.11
2022-11-10T23:22:42.220Z,7.11
2022-11-10T23:25:28.107Z,7.10
2022-11-10T23:28:13.830Z,7.10
2022-11-10T23:31:06.865Z,7.09
2022-11-10T23:33:57.809Z,7.10
2022-11-10T23:36:44.170Z,7.10
2022-11-10T23:39:30.828Z,7.11
2022-11-10T23:42:16.571Z,7.11
2022-11-10T23:45:02.555Z,7.11
2022-11-10T23:47:48.537Z,7.12
2022-11-10T23:50:34.654Z,7.13
2022-11-10T23:53:21.365Z,7.15
2022-11-10T23:56:11.619Z,7.16
2022-11-10T23:58:57.239Z,7.19
